Urb Medina, Puerto Rico
Current Conditions -  °F | °C
As of 5:50 PM on Tuesday 25 Nov 2014 (Local Time) from TJBQ Reporting Station
Scattered Clouds Scattered Clouds  
Wind Chill: 75°   Ceiling: Unl
Heat Index: 75°   Visibility: 10mi
Dew Point: 72°   Wind: 9mph
Humidity: 89%   Direction: 110°ESE
Pressure: 30.01"   Gusts: NA
Location:  18.4738°N, 66.9364°W
Report Text: TJBQ 252150Z 11008KT 10SM SCT030 24/22 A3001 RMK RWY08 ATIS Z
Loading
Personal Weather Stations






























Interactive Weather Map New forecast layout! Learn more

10-Day Weather Forecast

Advertisements
Track Severe Weather on mobile